Flight Track Log - Related Links

Times and Time Zones

All times are in EDT time to prevent confusion due to time zone crossing. See the N108RJ flight status page for this flight to view local times or setup timezone preferences in your user account.

Time Position Orientation Groundspeed Altitude Reporting Facility
EDT Latitude Longitude Course Direction KTS MPH feet Rate Location/Type
Sun 04:43:03 PM 46.3297 -117.0211 244° Southwest 167 192 5,300  Level Seattle Center
Sun 04:44:05 PM 46.3219 -117.1011 262° West 167 192 7,300 1,854 Climbing Seattle Center
Sun 04:45:06 PM 46.3117 -117.1656 257° West 167 192 9,100 1,623 Climbing Seattle Center
Sun 04:46:00 PM 46.2810 -117.5498 258° West  Level FlightAware Approximate
Sun 04:46:07 PM 46.3031 -117.2297 259° West 165 190 10,600  Level Seattle Center
Sun 04:47:00 PM 46.2679 -117.6420 258° West  Level FlightAware Approximate
Sun 04:47:08 PM 46.2928 -117.2986 258° West 169 194 11,900  Level Seattle Center
Sun 04:48:09 PM 46.2833 -117.3681 259° West 175 201 13,500 1,426 Climbing Seattle Center
Sun 04:49:10 PM 46.2731 -117.4344 257° West 172 198 14,800 1,180 Climbing Seattle Center
Sun 04:50:11 PM 46.2639 -117.5056 259° West 177 204 15,900 1,279 Climbing Seattle Center
Sun 04:51:12 PM 46.2539 -117.5761 258° West 180 207 17,400 1,328 Climbing Seattle Center
Sun 04:52:13 PM 46.2422 -117.6383 255° West 169 194 18,600 934 Climbing Seattle Center
Sun 04:53:14 PM 46.2314 -117.7133 258° West 180 207 19,300 984 Climbing Seattle Center
Sun 04:54:15 PM 46.2197 -117.7944 258° West 197 227 20,600 1,279 Climbing Seattle Center
Sun 04:55:16 PM 46.2075 -117.8728 257° West 200 230 21,900 1,279 Climbing Seattle Center
Sun 04:56:17 PM 46.1947 -117.9656 259° West 197 227 23,200 984 Climbing Seattle Center
Sun 04:57:18 PM 46.1825 -118.0453 258° West 201 231 23,900 393 Climbing Seattle Center
Sun 04:58:19 PM 46.1689 -118.1278 257° West 204 235 24,000 49 Climbing Seattle Center
Sun 04:59:20 PM 46.1522 -118.2189 255° West 216 249 24,000  Level Seattle Center
Sun 05:00:21 PM 46.1378 -118.3192 258° West 233 268 24,000  Level Seattle Center
Sun 05:01:22 PM 46.1233 -118.4194 258° West 244 281 24,000  Level Seattle Center
Sun 05:02:23 PM 46.1083 -118.5183 258° West 249 287 24,000  Level Seattle Center
Sun 05:03:24 PM 46.0928 -118.6161 257° West 251 289 24,000  Level Seattle Center
Sun 05:04:25 PM 46.0761 -118.7136 256° West 252 290 24,000  Level Seattle Center
Sun 05:05:26 PM 46.0600 -118.8131 257° West 254 292 24,000  Level Seattle Center
Sun 05:06:27 PM 46.0433 -118.9133 257° West 257 296 24,000  Level Seattle Center
Sun 05:07:28 PM 46.0231 -119.0331 256° West 258 297 24,000  Level Seattle Center
Sun 05:08:29 PM 46.0050 -119.1347 256° West 260 299 24,000  Level Seattle Center
Sun 05:09:30 PM 45.9883 -119.2344 257° West 259 298 24,000  Level Seattle Center
Sun 05:10:31 PM 45.9700 -119.3331 255° West 257 296 24,000  Level Seattle Center
Sun 05:11:32 PM 45.9536 -119.4319 257° West 257 296 24,000  Level Seattle Center
Sun 05:12:33 PM 45.9356 -119.5311 255° West 257 296 24,000  Level Seattle Center
Sun 05:13:34 PM 45.9189 -119.6297 256° West 256 295 24,000  Level Seattle Center
Sun 05:14:35 PM 45.9011 -119.7297 256° West 258 297 24,000  Level Seattle Center
Sun 05:15:36 PM 45.8833 -119.8269 255° West 256 295 24,000  Level Seattle Center
Sun 05:16:37 PM 45.8664 -119.9281 257° West 260 299 24,000  Level Seattle Center
Sun 05:17:38 PM 45.8483 -120.0264 255° West 257 296 24,000  Level Seattle Center
Sun 05:18:39 PM 45.8303 -120.1231 255° West 253 291 24,000  Level Seattle Center
Sun 05:19:40 PM 45.8089 -120.2403 255° West 254 292 24,000  Level Seattle Center
Sun 05:20:41 PM 45.7908 -120.3389 255° West 256 295 24,000  Level Seattle Center
Sun 05:21:42 PM 45.7722 -120.4364 255° West 255 293 24,000  Level Seattle Center
Sun 05:22:43 PM 45.7542 -120.5356 255° West 258 297 24,000  Level Seattle Center
Sun 05:23:43 PM 45.7353 -120.6347 255° West 259 298 24,000  Level Seattle Center
Sun 05:24:44 PM 45.7172 -120.7325 255° West 258 297 24,000  Level Seattle Center
Sun 05:25:45 PM 45.6989 -120.8308 255° West 257 296 24,000  Level Seattle Center
Sun 05:26:46 PM 45.6819 -120.9278 256° West 253 291 24,000 -639 Level Seattle Center
Sun 05:27:47 PM 45.6625 -121.0289 255° West 260 299 22,700 -1,328 Descending Seattle Center
Sun 05:28:48 PM 45.6422 -121.1375 255° West 275 316 21,300 -1,328 Descending Seattle Center
Sun 05:29:49 PM 45.6219 -121.2417 254° West 276 318 20,000 -1,426 Descending Seattle Center
Sun 05:30:50 PM 45.5972 -121.3681 254° West 278 320 18,400 -1,475 Descending Seattle Center
Sun 05:31:51 PM 45.5783 -121.4694 255° West 269 310 17,000 -1,131 Descending Seattle Center
Sun 05:32:52 PM 45.5583 -121.5658 254° West 258 297 16,100 -787 Descending Seattle Center
Sun 05:33:53 PM 45.5372 -121.6594 252° West 250 288 15,400 -1,160 Descending Seattle Center
Sun 05:34:51 PM 45.5125 -121.7575 250° West 258 297 13,800 -1,664 Descending Seattle Center
Sun 05:35:52 PM 45.4878 -121.8578 251° West 270 311 12,100 -1,671 Descending Seattle Center
Sun 05:37:11 PM 45.4536 -121.9864 249° West 262 302 9,900 -1,636 Descending Seattle Center
Sun 05:37:53 PM 45.4369 -122.0519 250° West 262 302 8,800 -1,631 Descending Seattle Center
Sun 05:38:54 PM 45.4114 -122.1489 249° West 262 302 7,100 -1,104 Descending Seattle Center
Sun 05:39:58 PM 45.3950 -122.2522 257° West 248 285 6,500 -898 Descending Seattle Center
Sun 05:41:01 PM 45.3836 -122.3514 261° West 235 270 5,200 -1,475 Descending Seattle Center
Sun 05:41:56 PM 45.3578 -122.4267 244° Southwest 238 274 3,600 -1,300 Descending Seattle Center
Sun 05:43:01 PM 45.3333 -122.5131 248° West 220 253 2,600 -667 Descending Seattle Center
Sun 05:44:02 PM 45.3100 -122.5742 242° Southwest 191 220 2,200 -344 Descending Seattle Center
Sun 05:45:03 PM 45.2886 -122.6397 245° Southwest 189 217 1,900 -295 Descending Seattle Center

Login

Don't have an account? Register now (free) for customized features, flight alerts, and more!